KERI/ERI METAR and TAF weather

Enter ICAO airport designator
Station Type Date Time Source
KERI METAR 2020/01/21 15:42 UTC NOAA

KERI 211542Z 26007KT 10SM OVC030 M03/M11 A3055 RMK AO2 T10331106 $


Station Type Date Time Source
KERI Decoded METAR 2020/01/21 15:42 UTC NOAA

ERIE INTERNATIONAL AIRPORT, PA, United States (KERI) 42-05N 080-11W 222M
Jan 21, 2020 - 10:42 AM EST / 2020.01.21 1542 UTC
Wind: from the W (260 degrees) at 8 MPH (7 KT):0
Visibility: 10 mile(s):0
Sky conditions: overcast
Temperature: 26.1 F (-3.3 C)
Windchill: 17 F (-8 C):1
Dew Point: 12.9 F (-10.6 C)
Relative Humidity: 56%
Pressure (altimeter): 30.55 in. Hg (1034 hPa)
ob: KERI 211542Z 26007KT 10SM OVC030 M03/M11 A3055 RMK AO2 T10331106
cycle: 15

Station Type Date Time Source
KERI TAF 2020/01/21 12:22 UTC NOAA

TAF KERI 211120Z 2112/2212 30005KT P6SM OVC030
TEMPO 2112/2116 6SM -SHSN
FM212000 25009KT P6SM OVC035
FM220100 22008KT P6SM BKN250

Example: see airport list